sensor_id;sensor_type;location;lat;lon;timestamp;pressure;altitude;pressure_sealevel;temperature
11424;BMP180;5768;51.476;7.210;2022-12-28T00:03:11;100421.00;;;9.60
11424;BMP180;5768;51.476;7.210;2022-12-28T00:08:13;100396.00;;;9.60
11424;BMP180;5768;51.476;7.210;2022-12-28T00:13:16;100397.00;;;9.70
11424;BMP180;5768;51.476;7.210;2022-12-28T00:18:18;100392.00;;;9.70
11424;BMP180;5768;51.476;7.210;2022-12-28T00:23:20;100388.00;;;9.70
11424;BMP180;5768;51.476;7.210;2022-12-28T00:28:24;100393.00;;;9.80
11424;BMP180;5768;51.476;7.210;2022-12-28T00:33:26;100389.00;;;9.80
11424;BMP180;5768;51.476;7.210;2022-12-28T00:38:29;100382.00;;;9.90
11424;BMP180;5768;51.476;7.210;2022-12-28T00:43:33;100386.00;;;10.00
11424;BMP180;5768;51.476;7.210;2022-12-28T00:48:35;100383.00;;;10.00
11424;BMP180;5768;51.476;7.210;2022-12-28T00:53:38;100389.00;;;10.00
11424;BMP180;5768;51.476;7.210;2022-12-28T00:58:44;100352.00;;;9.90
11424;BMP180;5768;51.476;7.210;2022-12-28T01:03:47;100335.00;;;9.80
11424;BMP180;5768;51.476;7.210;2022-12-28T01:08:49;100321.00;;;9.90
11424;BMP180;5768;51.476;7.210;2022-12-28T01:13:55;100320.00;;;10.00
11424;BMP180;5768;51.476;7.210;2022-12-28T01:19:00;100301.00;;;10.00
11424;BMP180;5768;51.476;7.210;2022-12-28T01:24:06;100299.00;;;10.10
11424;BMP180;5768;51.476;7.210;2022-12-28T01:29:10;100296.00;;;10.10
11424;BMP180;5768;51.476;7.210;2022-12-28T01:34:12;100292.00;;;10.20
11424;BMP180;5768;51.476;7.210;2022-12-28T01:39:16;100287.00;;;10.10
11424;BMP180;5768;51.476;7.210;2022-12-28T01:44:42;100268.00;;;10.10
11424;BMP180;5768;51.476;7.210;2022-12-28T01:49:58;100265.00;;;10.10
11424;BMP180;5768;51.476;7.210;2022-12-28T01:55:08;100266.00;;;10.00
11424;BMP180;5768;51.476;7.210;2022-12-28T02:00:15;100231.00;;;10.10
11424;BMP180;5768;51.476;7.210;2022-12-28T02:05:26;100235.00;;;10.10
11424;BMP180;5768;51.476;7.210;2022-12-28T02:10:32;100236.00;;;10.20
11424;BMP180;5768;51.476;7.210;2022-12-28T02:15:35;100219.00;;;10.20
11424;BMP180;5768;51.476;7.210;2022-12-28T02:20:53;100205.00;;;10.30
11424;BMP180;5768;51.476;7.210;2022-12-28T02:26:47;100188.00;;;10.40
11424;BMP180;5768;51.476;7.210;2022-12-28T02:32:02;100182.00;;;10.40
11424;BMP180;5768;51.476;7.210;2022-12-28T02:37:17;100143.00;;;10.40
11424;BMP180;5768;51.476;7.210;2022-12-28T02:42:22;100142.00;;;10.40
11424;BMP180;5768;51.476;7.210;2022-12-28T02:47:27;100145.00;;;10.50
11424;BMP180;5768;51.476;7.210;2022-12-28T02:59:10;100130.00;;;10.60
11424;BMP180;5768;51.476;7.210;2022-12-28T03:04:27;100124.00;;;10.60
11424;BMP180;5768;51.476;7.210;2022-12-28T03:09:36;100111.00;;;10.60
11424;BMP180;5768;51.476;7.210;2022-12-28T03:14:47;100119.00;;;10.60
11424;BMP180;5768;51.476;7.210;2022-12-28T03:19:56;100109.00;;;10.60
11424;BMP180;5768;51.476;7.210;2022-12-28T03:25:20;100099.00;;;10.50
11424;BMP180;5768;51.476;7.210;2022-12-28T03:30:44;100083.00;;;10.50
11424;BMP180;5768;51.476;7.210;2022-12-28T03:36:13;100096.00;;;10.50
11424;BMP180;5768;51.476;7.210;2022-12-28T03:41:27;100076.00;;;10.50
11424;BMP180;5768;51.476;7.210;2022-12-28T03:46:35;100066.00;;;10.40
11424;BMP180;5768;51.476;7.210;2022-12-28T03:51:44;100054.00;;;10.40
11424;BMP180;5768;51.476;7.210;2022-12-28T03:56:50;100058.00;;;10.50
11424;BMP180;5768;51.476;7.210;2022-12-28T04:01:52;100035.00;;;10.50
11424;BMP180;5768;51.476;7.210;2022-12-28T04:06:55;100048.00;;;10.60
11424;BMP180;5768;51.476;7.210;2022-12-28T04:11:57;100028.00;;;10.60
11424;BMP180;5768;51.476;7.210;2022-12-28T04:17:00;100027.00;;;10.60
11424;BMP180;5768;51.476;7.210;2022-12-28T04:22:04;100021.00;;;10.60
11424;BMP180;5768;51.476;7.210;2022-12-28T04:27:06;100011.00;;;10.60
11424;BMP180;5768;51.476;7.210;2022-12-28T04:32:08;100006.00;;;10.60
11424;BMP180;5768;51.476;7.210;2022-12-28T04:37:12;99989.00;;;10.70
11424;BMP180;5768;51.476;7.210;2022-12-28T04:42:14;99992.00;;;10.70
11424;BMP180;5768;51.476;7.210;2022-12-28T04:47:16;99995.00;;;10.70
11424;BMP180;5768;51.476;7.210;2022-12-28T04:52:19;99982.00;;;10.50
11424;BMP180;5768;51.476;7.210;2022-12-28T04:57:22;99981.00;;;10.30
11424;BMP180;5768;51.476;7.210;2022-12-28T05:02:27;99980.00;;;10.30
11424;BMP180;5768;51.476;7.210;2022-12-28T05:07:30;99970.00;;;10.30
11424;BMP180;5768;51.476;7.210;2022-12-28T05:12:32;99957.00;;;10.20
11424;BMP180;5768;51.476;7.210;2022-12-28T05:17:35;99961.00;;;10.30
11424;BMP180;5768;51.476;7.210;2022-12-28T05:22:38;99965.00;;;10.30
11424;BMP180;5768;51.476;7.210;2022-12-28T05:27:40;99954.00;;;10.20
11424;BMP180;5768;51.476;7.210;2022-12-28T05:32:42;99961.00;;;10.30
11424;BMP180;5768;51.476;7.210;2022-12-28T05:37:45;99965.00;;;10.30
11424;BMP180;5768;51.476;7.210;2022-12-28T05:42:47;99964.00;;;10.30
11424;BMP180;5768;51.476;7.210;2022-12-28T05:47:50;99968.00;;;10.30
11424;BMP180;5768;51.476;7.210;2022-12-28T05:52:53;99959.00;;;10.30
11424;BMP180;5768;51.476;7.210;2022-12-28T05:57:55;99953.00;;;10.40
11424;BMP180;5768;51.476;7.210;2022-12-28T06:02:57;99965.00;;;10.40
11424;BMP180;5768;51.476;7.210;2022-12-28T06:08:01;99951.00;;;10.40
11424;BMP180;5768;51.476;7.210;2022-12-28T06:13:03;99950.00;;;10.40
11424;BMP180;5768;51.476;7.210;2022-12-28T06:18:05;99939.00;;;10.40
11424;BMP180;5768;51.476;7.210;2022-12-28T06:23:08;99934.00;;;10.50
11424;BMP180;5768;51.476;7.210;2022-12-28T06:28:10;99941.00;;;10.60
11424;BMP180;5768;51.476;7.210;2022-12-28T06:33:13;99945.00;;;10.60
11424;BMP180;5768;51.476;7.210;2022-12-28T06:38:16;99945.00;;;10.60
11424;BMP180;5768;51.476;7.210;2022-12-28T06:43:18;99947.00;;;10.70
11424;BMP180;5768;51.476;7.210;2022-12-28T06:48:20;99952.00;;;10.70
11424;BMP180;5768;51.476;7.210;2022-12-28T06:53:24;99942.00;;;10.50
11424;BMP180;5768;51.476;7.210;2022-12-28T06:58:28;99935.00;;;10.40
11424;BMP180;5768;51.476;7.210;2022-12-28T07:03:30;99935.00;;;10.40
11424;BMP180;5768;51.476;7.210;2022-12-28T07:08:37;99929.00;;;10.40
11424;BMP180;5768;51.476;7.210;2022-12-28T07:13:39;99930.00;;;10.40
11424;BMP180;5768;51.476;7.210;2022-12-28T07:18:42;99934.00;;;10.50
11424;BMP180;5768;51.476;7.210;2022-12-28T07:23:46;99931.00;;;10.50
11424;BMP180;5768;51.476;7.210;2022-12-28T07:28:50;99930.00;;;10.60
11424;BMP180;5768;51.476;7.210;2022-12-28T07:33:55;99917.00;;;10.70
11424;BMP180;5768;51.476;7.210;2022-12-28T07:38:59;99918.00;;;10.80
11424;BMP180;5768;51.476;7.210;2022-12-28T07:44:01;99922.00;;;10.70
11424;BMP180;5768;51.476;7.210;2022-12-28T07:49:04;99916.00;;;10.70
11424;BMP180;5768;51.476;7.210;2022-12-28T07:54:08;99921.00;;;10.80
11424;BMP180;5768;51.476;7.210;2022-12-28T07:59:10;99915.00;;;10.80
11424;BMP180;5768;51.476;7.210;2022-12-28T08:04:14;99914.00;;;10.90
11424;BMP180;5768;51.476;7.210;2022-12-28T08:09:18;99908.00;;;10.90
11424;BMP180;5768;51.476;7.210;2022-12-28T08:14:20;99911.00;;;11.00
11424;BMP180;5768;51.476;7.210;2022-12-28T08:19:23;99920.00;;;11.10
11424;BMP180;5768;51.476;7.210;2022-12-28T08:24:29;99915.00;;;11.20
11424;BMP180;5768;51.476;7.210;2022-12-28T08:29:31;99903.00;;;11.20
11424;BMP180;5768;51.476;7.210;2022-12-28T08:34:33;99911.00;;;11.40
11424;BMP180;5768;51.476;7.210;2022-12-28T08:39:37;99922.00;;;11.40
11424;BMP180;5768;51.476;7.210;2022-12-28T08:44:47;99908.00;;;11.50
11424;BMP180;5768;51.476;7.210;2022-12-28T08:49:52;99908.00;;;11.60
11424;BMP180;5768;51.476;7.210;2022-12-28T08:54:55;99913.00;;;11.70
11424;BMP180;5768;51.476;7.210;2022-12-28T08:59:57;99917.00;;;11.80
11424;BMP180;5768;51.476;7.210;2022-12-28T09:05:00;99900.00;;;11.90
11424;BMP180;5768;51.476;7.210;2022-12-28T09:10:06;99915.00;;;11.90
11424;BMP180;5768;51.476;7.210;2022-12-28T09:15:09;99913.00;;;11.90
11424;BMP180;5768;51.476;7.210;2022-12-28T09:20:11;99912.00;;;12.00
11424;BMP180;5768;51.476;7.210;2022-12-28T09:25:14;99914.00;;;12.10
11424;BMP180;5768;51.476;7.210;2022-12-28T09:30:17;99920.00;;;12.20
11424;BMP180;5768;51.476;7.210;2022-12-28T09:35:19;99912.00;;;12.20
11424;BMP180;5768;51.476;7.210;2022-12-28T09:40:22;99925.00;;;12.30
11424;BMP180;5768;51.476;7.210;2022-12-28T09:45:26;99919.00;;;12.30
11424;BMP180;5768;51.476;7.210;2022-12-28T09:50:30;99916.00;;;12.40
11424;BMP180;5768;51.476;7.210;2022-12-28T09:55:39;99915.00;;;12.50
11424;BMP180;5768;51.476;7.210;2022-12-28T10:00:47;99928.00;;;12.50
11424;BMP180;5768;51.476;7.210;2022-12-28T10:05:54;99903.00;;;12.60
11424;BMP180;5768;51.476;7.210;2022-12-28T10:11:01;99901.00;;;12.70
11424;BMP180;5768;51.476;7.210;2022-12-28T10:16:06;99892.00;;;12.70
11424;BMP180;5768;51.476;7.210;2022-12-28T10:21:13;99886.00;;;12.80
11424;BMP180;5768;51.476;7.210;2022-12-28T10:26:18;99896.00;;;12.90
11424;BMP180;5768;51.476;7.210;2022-12-28T10:31:32;99891.00;;;13.00
11424;BMP180;5768;51.476;7.210;2022-12-28T10:36:40;99884.00;;;13.00
11424;BMP180;5768;51.476;7.210;2022-12-28T10:41:45;99886.00;;;13.00
11424;BMP180;5768;51.476;7.210;2022-12-28T10:46:58;99855.00;;;13.00
11424;BMP180;5768;51.476;7.210;2022-12-28T10:52:05;99856.00;;;13.00
11424;BMP180;5768;51.476;7.210;2022-12-28T10:57:16;99843.00;;;13.20
11424;BMP180;5768;51.476;7.210;2022-12-28T11:02:26;99839.00;;;13.20
11424;BMP180;5768;51.476;7.210;2022-12-28T11:07:35;99848.00;;;13.20
11424;BMP180;5768;51.476;7.210;2022-12-28T11:12:44;99834.00;;;13.30
11424;BMP180;5768;51.476;7.210;2022-12-28T11:17:53;99825.00;;;13.50
11424;BMP180;5768;51.476;7.210;2022-12-28T11:22:57;99820.00;;;13.50
11424;BMP180;5768;51.476;7.210;2022-12-28T11:28:04;99813.00;;;13.60
11424;BMP180;5768;51.476;7.210;2022-12-28T11:33:25;99809.00;;;13.60
11424;BMP180;5768;51.476;7.210;2022-12-28T11:38:39;99803.00;;;13.60
11424;BMP180;5768;51.476;7.210;2022-12-28T11:43:52;99804.00;;;13.50
11424;BMP180;5768;51.476;7.210;2022-12-28T11:48:59;99801.00;;;13.40
11424;BMP180;5768;51.476;7.210;2022-12-28T11:54:04;99790.00;;;13.40
11424;BMP180;5768;51.476;7.210;2022-12-28T11:59:33;99786.00;;;13.30
11424;BMP180;5768;51.476;7.210;2022-12-28T12:04:40;99795.00;;;13.40
11424;BMP180;5768;51.476;7.210;2022-12-28T12:09:46;99795.00;;;13.30
11424;BMP180;5768;51.476;7.210;2022-12-28T12:15:00;99819.00;;;13.10
11424;BMP180;5768;51.476;7.210;2022-12-28T12:20:19;99783.00;;;12.90
11424;BMP180;5768;51.476;7.210;2022-12-28T12:25:35;99775.00;;;12.80
11424;BMP180;5768;51.476;7.210;2022-12-28T12:30:41;99769.00;;;12.90
11424;BMP180;5768;51.476;7.210;2022-12-28T12:35:57;99759.00;;;13.00
11424;BMP180;5768;51.476;7.210;2022-12-28T12:41:20;99757.00;;;13.00
11424;BMP180;5768;51.476;7.210;2022-12-28T12:46:59;99761.00;;;13.00
11424;BMP180;5768;51.476;7.210;2022-12-28T12:52:19;99763.00;;;13.00
11424;BMP180;5768;51.476;7.210;2022-12-28T12:57:32;99767.00;;;12.90
11424;BMP180;5768;51.476;7.210;2022-12-28T13:03:22;99773.00;;;12.70
11424;BMP180;5768;51.476;7.210;2022-12-28T13:08:36;99718.00;;;12.60
11424;BMP180;5768;51.476;7.210;2022-12-28T13:13:41;99745.00;;;12.50
11424;BMP180;5768;51.476;7.210;2022-12-28T13:18:58;99735.00;;;12.50
11424;BMP180;5768;51.476;7.210;2022-12-28T13:24:00;99735.00;;;12.50
11424;BMP180;5768;51.476;7.210;2022-12-28T13:29:08;99713.00;;;12.60
11424;BMP180;5768;51.476;7.210;2022-12-28T13:34:18;99700.00;;;12.70
11424;BMP180;5768;51.476;7.210;2022-12-28T13:39:24;99690.00;;;12.80
11424;BMP180;5768;51.476;7.210;2022-12-28T13:44:41;99681.00;;;12.80
11424;BMP180;5768;51.476;7.210;2022-12-28T13:49:55;99688.00;;;12.90
11424;BMP180;5768;51.476;7.210;2022-12-28T13:55:04;99667.00;;;12.90
11424;BMP180;5768;51.476;7.210;2022-12-28T14:00:13;99653.00;;;13.00
11424;BMP180;5768;51.476;7.210;2022-12-28T14:05:22;99659.00;;;13.00
11424;BMP180;5768;51.476;7.210;2022-12-28T14:10:27;99649.00;;;13.10
11424;BMP180;5768;51.476;7.210;2022-12-28T14:15:32;99644.00;;;13.10
11424;BMP180;5768;51.476;7.210;2022-12-28T14:20:49;99654.00;;;13.10
11424;BMP180;5768;51.476;7.210;2022-12-28T14:25:55;99650.00;;;13.10
11424;BMP180;5768;51.476;7.210;2022-12-28T14:30:58;99633.00;;;13.10
11424;BMP180;5768;51.476;7.210;2022-12-28T14:36:17;99621.00;;;13.10
11424;BMP180;5768;51.476;7.210;2022-12-28T14:41:27;99617.00;;;13.00
11424;BMP180;5768;51.476;7.210;2022-12-28T14:46:34;99609.00;;;13.00
11424;BMP180;5768;51.476;7.210;2022-12-28T14:51:38;99600.00;;;13.00
11424;BMP180;5768;51.476;7.210;2022-12-28T14:56:40;99585.00;;;13.10
11424;BMP180;5768;51.476;7.210;2022-12-28T15:01:45;99584.00;;;13.10
11424;BMP180;5768;51.476;7.210;2022-12-28T15:06:49;99573.00;;;13.10
11424;BMP180;5768;51.476;7.210;2022-12-28T15:12:10;99569.00;;;13.10
11424;BMP180;5768;51.476;7.210;2022-12-28T15:17:15;99551.00;;;13.10
11424;BMP180;5768;51.476;7.210;2022-12-28T15:22:19;99541.00;;;13.00
11424;BMP180;5768;51.476;7.210;2022-12-28T15:27:21;99534.00;;;13.00
11424;BMP180;5768;51.476;7.210;2022-12-28T15:32:23;99525.00;;;13.00
11424;BMP180;5768;51.476;7.210;2022-12-28T15:37:26;99524.00;;;13.00
11424;BMP180;5768;51.476;7.210;2022-12-28T15:42:28;99518.00;;;13.00
11424;BMP180;5768;51.476;7.210;2022-12-28T15:47:31;99500.00;;;13.00
11424;BMP180;5768;51.476;7.210;2022-12-28T15:52:35;99491.00;;;13.10
11424;BMP180;5768;51.476;7.210;2022-12-28T15:57:37;99491.00;;;13.10
11424;BMP180;5768;51.476;7.210;2022-12-28T16:02:39;99482.00;;;13.10
11424;BMP180;5768;51.476;7.210;2022-12-28T16:07:42;99467.00;;;13.10
11424;BMP180;5768;51.476;7.210;2022-12-28T16:12:45;99454.00;;;13.00
11424;BMP180;5768;51.476;7.210;2022-12-28T16:17:47;99450.00;;;13.00
11424;BMP180;5768;51.476;7.210;2022-12-28T16:22:52;99438.00;;;13.00
11424;BMP180;5768;51.476;7.210;2022-12-28T16:27:54;99444.00;;;13.10
11424;BMP180;5768;51.476;7.210;2022-12-28T16:32:57;99422.00;;;13.10
11424;BMP180;5768;51.476;7.210;2022-12-28T16:38:01;99410.00;;;13.10
11424;BMP180;5768;51.476;7.210;2022-12-28T16:43:04;99403.00;;;13.10
11424;BMP180;5768;51.476;7.210;2022-12-28T16:48:08;99387.00;;;13.10
11424;BMP180;5768;51.476;7.210;2022-12-28T16:53:13;99386.00;;;13.20
11424;BMP180;5768;51.476;7.210;2022-12-28T16:58:15;99378.00;;;13.20
11424;BMP180;5768;51.476;7.210;2022-12-28T17:03:17;99359.00;;;13.20
11424;BMP180;5768;51.476;7.210;2022-12-28T17:08:21;99355.00;;;13.20
11424;BMP180;5768;51.476;7.210;2022-12-28T17:13:23;99350.00;;;13.20
11424;BMP180;5768;51.476;7.210;2022-12-28T17:18:25;99350.00;;;13.20
11424;BMP180;5768;51.476;7.210;2022-12-28T17:23:29;99343.00;;;13.20
11424;BMP180;5768;51.476;7.210;2022-12-28T17:28:31;99344.00;;;13.20
11424;BMP180;5768;51.476;7.210;2022-12-28T17:33:33;99332.00;;;13.10
11424;BMP180;5768;51.476;7.210;2022-12-28T17:38:38;99327.00;;;13.00
11424;BMP180;5768;51.476;7.210;2022-12-28T17:43:45;99337.00;;;13.00
11424;BMP180;5768;51.476;7.210;2022-12-28T17:48:47;99320.00;;;12.90
11424;BMP180;5768;51.476;7.210;2022-12-28T17:53:54;99312.00;;;12.80
11424;BMP180;5768;51.476;7.210;2022-12-28T17:58:58;99314.00;;;12.80
11424;BMP180;5768;51.476;7.210;2022-12-28T18:04:03;99299.00;;;12.70
11424;BMP180;5768;51.476;7.210;2022-12-28T18:09:09;99289.00;;;12.70
11424;BMP180;5768;51.476;7.210;2022-12-28T18:14:14;99287.00;;;12.70
11424;BMP180;5768;51.476;7.210;2022-12-28T18:19:16;99279.00;;;12.70
11424;BMP180;5768;51.476;7.210;2022-12-28T18:24:20;99276.00;;;12.60
11424;BMP180;5768;51.476;7.210;2022-12-28T18:29:22;99257.00;;;12.60
11424;BMP180;5768;51.476;7.210;2022-12-28T18:34:24;99246.00;;;12.60
11424;BMP180;5768;51.476;7.210;2022-12-28T18:39:28;99247.00;;;12.50
11424;BMP180;5768;51.476;7.210;2022-12-28T18:44:30;99233.00;;;12.50
11424;BMP180;5768;51.476;7.210;2022-12-28T18:49:32;99231.00;;;12.50
11424;BMP180;5768;51.476;7.210;2022-12-28T18:54:36;99225.00;;;12.50
11424;BMP180;5768;51.476;7.210;2022-12-28T18:59:38;99223.00;;;12.50
11424;BMP180;5768;51.476;7.210;2022-12-28T19:04:40;99215.00;;;12.50
11424;BMP180;5768;51.476;7.210;2022-12-28T19:09:47;99209.00;;;12.50
11424;BMP180;5768;51.476;7.210;2022-12-28T19:15:05;99182.00;;;12.30
11424;BMP180;5768;51.476;7.210;2022-12-28T19:20:09;99181.00;;;12.30
11424;BMP180;5768;51.476;7.210;2022-12-28T19:25:15;99181.00;;;12.20
11424;BMP180;5768;51.476;7.210;2022-12-28T19:30:17;99171.00;;;12.20
11424;BMP180;5768;51.476;7.210;2022-12-28T19:35:19;99170.00;;;12.10
11424;BMP180;5768;51.476;7.210;2022-12-28T19:40:23;99164.00;;;12.10
11424;BMP180;5768;51.476;7.210;2022-12-28T19:45:25;99155.00;;;12.10
11424;BMP180;5768;51.476;7.210;2022-12-28T19:50:28;99146.00;;;12.20
11424;BMP180;5768;51.476;7.210;2022-12-28T19:55:34;99147.00;;;12.00
11424;BMP180;5768;51.476;7.210;2022-12-28T20:00:36;99150.00;;;12.00
11424;BMP180;5768;51.476;7.210;2022-12-28T20:05:42;99160.00;;;11.90
11424;BMP180;5768;51.476;7.210;2022-12-28T20:10:54;99138.00;;;11.80
11424;BMP180;5768;51.476;7.210;2022-12-28T20:15:56;99142.00;;;11.80
11424;BMP180;5768;51.476;7.210;2022-12-28T20:21:01;99123.00;;;11.80
11424;BMP180;5768;51.476;7.210;2022-12-28T20:26:05;99122.00;;;11.90
11424;BMP180;5768;51.476;7.210;2022-12-28T20:31:13;99112.00;;;12.10
11424;BMP180;5768;51.476;7.210;2022-12-28T20:36:18;99109.00;;;12.20
11424;BMP180;5768;51.476;7.210;2022-12-28T20:41:23;99096.00;;;12.30
11424;BMP180;5768;51.476;7.210;2022-12-28T20:46:44;99112.00;;;12.40
11424;BMP180;5768;51.476;7.210;2022-12-28T20:51:46;99108.00;;;12.50
11424;BMP180;5768;51.476;7.210;2022-12-28T20:56:50;99108.00;;;12.60
11424;BMP180;5768;51.476;7.210;2022-12-28T21:01:52;99108.00;;;12.60
11424;BMP180;5768;51.476;7.210;2022-12-28T21:06:54;99091.00;;;12.70
11424;BMP180;5768;51.476;7.210;2022-12-28T21:11:58;99115.00;;;12.70
11424;BMP180;5768;51.476;7.210;2022-12-28T21:17:03;99105.00;;;12.80
11424;BMP180;5768;51.476;7.210;2022-12-28T21:22:05;99108.00;;;12.80
11424;BMP180;5768;51.476;7.210;2022-12-28T21:27:12;99100.00;;;12.90
11424;BMP180;5768;51.476;7.210;2022-12-28T21:32:14;99104.00;;;12.90
11424;BMP180;5768;51.476;7.210;2022-12-28T21:37:17;99079.00;;;12.90
11424;BMP180;5768;51.476;7.210;2022-12-28T21:42:38;99077.00;;;13.00
11424;BMP180;5768;51.476;7.210;2022-12-28T21:47:41;99078.00;;;13.00
11424;BMP180;5768;51.476;7.210;2022-12-28T21:52:43;99071.00;;;13.10
11424;BMP180;5768;51.476;7.210;2022-12-28T21:57:49;99079.00;;;13.00
11424;BMP180;5768;51.476;7.210;2022-12-28T22:02:51;99078.00;;;13.00
11424;BMP180;5768;51.476;7.210;2022-12-28T22:08:14;99061.00;;;13.10
11424;BMP180;5768;51.476;7.210;2022-12-28T22:13:35;99053.00;;;13.10
11424;BMP180;5768;51.476;7.210;2022-12-28T22:18:37;99040.00;;;13.10
11424;BMP180;5768;51.476;7.210;2022-12-28T22:23:39;99033.00;;;13.20
11424;BMP180;5768;51.476;7.210;2022-12-28T22:28:43;99059.00;;;13.20
11424;BMP180;5768;51.476;7.210;2022-12-28T22:33:45;99052.00;;;13.30
11424;BMP180;5768;51.476;7.210;2022-12-28T22:38:47;99035.00;;;13.20
11424;BMP180;5768;51.476;7.210;2022-12-28T22:43:51;99049.00;;;13.30
11424;BMP180;5768;51.476;7.210;2022-12-28T22:48:53;99034.00;;;13.30
11424;BMP180;5768;51.476;7.210;2022-12-28T22:53:55;99024.00;;;13.30
11424;BMP180;5768;51.476;7.210;2022-12-28T22:58:59;99029.00;;;13.30
11424;BMP180;5768;51.476;7.210;2022-12-28T23:04:01;99050.00;;;13.30
11424;BMP180;5768;51.476;7.210;2022-12-28T23:09:04;99032.00;;;13.30
11424;BMP180;5768;51.476;7.210;2022-12-28T23:14:11;99020.00;;;13.30
11424;BMP180;5768;51.476;7.210;2022-12-28T23:19:32;99012.00;;;13.30
11424;BMP180;5768;51.476;7.210;2022-12-28T23:24:52;99006.00;;;13.20
11424;BMP180;5768;51.476;7.210;2022-12-28T23:30:16;99004.00;;;13.30
11424;BMP180;5768;51.476;7.210;2022-12-28T23:35:26;99000.00;;;13.30
11424;BMP180;5768;51.476;7.210;2022-12-28T23:40:28;98996.00;;;13.50
11424;BMP180;5768;51.476;7.210;2022-12-28T23:45:33;98977.00;;;13.60
11424;BMP180;5768;51.476;7.210;2022-12-28T23:50:35;98976.00;;;13.50
11424;BMP180;5768;51.476;7.210;2022-12-28T23:55:37;98971.00;;;13.60
